Time;durP1;ratioP1;P1;durP2;ratioP2;P2;SDS_P1;SDS_P2;PMS_P1;PMS_P2;Temp;Humidity;BMP_temperature;BMP_pressure;BME280_temperature;BME280_humidity;BME280_pressure;Samples;Min_cycle;Max_cycle;Signal;HPM_P1;HPM_P2
2020/12/23 00:01:19;;;;;;;0.50;0.50;;;6.10;99.90;;;;;;4930181;29;20662;-86
2020/12/23 00:03:46;;;;;;;0.50;0.50;;;6.10;99.90;;;;;;4930143;29;20564;-86
2020/12/23 00:06:12;;;;;;;0.50;0.50;;;6.10;99.90;;;;;;4929502;29;20200;-86
2020/12/23 00:08:38;;;;;;;0.50;0.50;;;6.20;99.90;;;;;;4929862;29;20207;-86
2020/12/23 00:11:04;;;;;;;0.50;0.50;;;6.10;99.90;;;;;;4929043;29;20196;-86
2020/12/23 00:13:31;;;;;;;0.50;0.50;;;6.10;99.90;;;;;;4929884;29;20201;-86
2020/12/23 00:15:57;;;;;;;0.50;0.50;;;6.10;99.90;;;;;;4929615;29;20228;-87
2020/12/23 00:18:23;;;;;;;0.50;0.50;;;6.20;99.90;;;;;;4927428;29;20215;-86
2020/12/23 00:20:50;;;;;;;0.50;0.50;;;6.20;99.90;;;;;;4927692;29;20260;-85
2020/12/23 00:23:16;;;;;;;0.50;0.50;;;6.20;99.90;;;;;;4928396;29;20211;-85
2020/12/23 00:25:43;;;;;;;0.50;0.50;;;6.20;99.90;;;;;;4929175;29;20264;-86
2020/12/23 00:28:09;;;;;;;0.50;0.50;;;6.20;99.90;;;;;;4929031;29;20484;-85
2020/12/23 00:30:35;;;;;;;0.50;0.50;;;6.20;99.90;;;;;;4929533;29;20268;-85
2020/12/23 00:33:02;;;;;;;0.50;0.50;;;6.20;99.90;;;;;;4929737;29;20200;-86
2020/12/23 00:35:28;;;;;;;0.50;0.50;;;6.20;99.90;;;;;;4929058;29;20228;-85
2020/12/23 00:37:55;;;;;;;0.50;0.50;;;6.20;99.90;;;;;;4932508;29;20407;-85
2020/12/23 00:40:21;;;;;;;0.50;0.50;;;6.20;99.90;;;;;;4933044;29;20196;-85
2020/12/23 00:42:47;;;;;;;0.50;0.50;;;6.20;99.90;;;;;;4933468;29;20231;-85
2020/12/23 00:45:13;;;;;;;0.50;0.50;;;6.20;99.90;;;;;;4932796;29;20248;-85
2020/12/23 00:47:41;;;;;;;0.50;0.50;;;6.10;99.90;;;;;;4932867;29;20309;-85
2020/12/23 00:50:07;;;;;;;0.50;0.50;;;6.20;99.90;;;;;;4932585;29;20204;-85
2020/12/23 00:52:33;;;;;;;0.50;0.50;;;6.20;99.90;;;;;;4933552;29;20249;-86
2020/12/23 00:55:00;;;;;;;0.50;0.50;;;6.10;99.90;;;;;;4932629;29;20628;-85
2020/12/23 00:57:26;;;;;;;0.50;0.50;;;6.10;99.90;;;;;;4932319;29;20235;-85
2020/12/23 00:59:52;;;;;;;0.50;0.50;;;6.10;99.90;;;;;;4932662;29;20203;-85
2020/12/23 01:02:18;;;;;;;0.50;0.50;;;6.20;99.90;;;;;;4932883;29;20590;-86
2020/12/23 01:04:45;;;;;;;0.50;0.50;;;6.10;99.90;;;;;;4932746;29;20256;-86
2020/12/23 01:07:11;;;;;;;0.50;0.50;;;6.10;99.90;;;;;;4932443;29;20203;-86
2020/12/23 01:09:37;;;;;;;0.50;0.50;;;6.10;99.90;;;;;;4932425;29;20208;-86
2020/12/23 01:12:04;;;;;;;0.50;0.50;;;6.00;99.90;;;;;;4932752;29;20263;-86
2020/12/23 01:14:30;;;;;;;0.50;0.50;;;5.90;99.90;;;;;;4932609;29;20204;-87
2020/12/23 01:16:56;;;;;;;0.50;0.50;;;5.80;99.90;;;;;;4932255;29;20229;-86
2020/12/23 01:19:42;;;;;;;0.50;0.50;;;5.80;99.90;;;;;;4932129;29;20208;-86
2020/12/23 01:22:08;;;;;;;0.50;0.50;;;5.70;99.90;;;;;;4932129;29;20251;-86
2020/12/23 01:24:34;;;;;;;0.50;0.50;;;5.60;99.90;;;;;;4932987;29;20208;-86
2020/12/23 01:27:00;;;;;;;0.50;0.50;;;5.50;99.90;;;;;;4932382;29;20564;-86
2020/12/23 01:29:39;;;;;;;0.50;0.50;;;5.40;99.90;;;;;;4932030;29;20841;-86
2020/12/23 01:32:05;;;;;;;0.50;0.50;;;5.30;99.90;;;;;;4932370;29;20208;-87
2020/12/23 01:34:31;;;;;;;0.50;0.50;;;5.20;99.90;;;;;;4932750;29;20204;-87
2020/12/23 01:36:57;;;;;;;0.50;0.50;;;5.30;99.90;;;;;;4932063;29;20216;-86
2020/12/23 01:39:23;;;;;;;0.50;0.50;;;5.20;99.90;;;;;;4932080;29;20635;-87
2020/12/23 01:41:56;;;;;;;0.50;0.50;;;5.10;99.90;;;;;;4932255;29;20215;-86
2020/12/23 01:44:22;;;;;;;0.50;0.50;;;5.10;99.90;;;;;;4931857;29;20219;-86
2020/12/23 01:46:50;;;;;;;0.50;0.50;;;5.00;99.90;;;;;;4932304;29;20213;-86
2020/12/23 01:49:17;;;;;;;0.50;0.50;;;5.00;99.90;;;;;;4931429;29;20232;-86
2020/12/23 01:51:43;;;;;;;0.50;0.50;;;5.00;99.90;;;;;;4931724;29;20205;-87
2020/12/23 01:54:12;;;;;;;0.50;0.50;;;5.00;99.90;;;;;;4931569;29;20434;-86
2020/12/23 01:56:41;;;;;;;0.50;0.50;;;5.00;99.90;;;;;;4931595;29;20216;-87
2020/12/23 01:59:07;;;;;;;0.50;0.50;;;5.00;99.90;;;;;;4931386;29;20690;-86
2020/12/23 02:01:41;;;;;;;0.50;0.50;;;5.00;99.90;;;;;;4932094;29;20673;-86
2020/12/23 02:04:08;;;;;;;0.50;0.50;;;5.00;99.90;;;;;;4931312;29;20255;-86
2020/12/23 02:06:34;;;;;;;0.50;0.50;;;5.00;99.90;;;;;;4931901;29;20213;-86
2020/12/23 02:09:03;;;;;;;0.50;0.50;;;5.10;99.90;;;;;;4932100;29;20247;-86
2020/12/23 02:11:30;;;;;;;0.50;0.50;;;5.00;99.90;;;;;;4931416;29;20671;-86
2020/12/23 02:13:56;;;;;;;0.50;0.50;;;5.00;99.90;;;;;;4931328;29;20388;-86
2020/12/23 02:16:22;;;;;;;0.50;0.50;;;4.80;99.90;;;;;;4931312;29;20599;-86
2020/12/23 02:18:48;;;;;;;0.50;0.50;;;4.60;99.90;;;;;;4931976;29;20234;-86
2020/12/23 02:21:16;;;;;;;0.50;0.50;;;4.50;99.90;;;;;;4931381;29;20196;-86
2020/12/23 02:23:43;;;;;;;0.50;0.50;;;4.50;99.90;;;;;;4931342;29;20200;-86
2020/12/23 02:26:09;;;;;;;0.60;0.60;;;4.20;99.90;;;;;;4930939;29;20713;-86
2020/12/23 02:28:35;;;;;;;0.50;0.50;;;4.00;99.90;;;;;;4931425;29;20205;-86
2020/12/23 02:31:03;;;;;;;0.50;0.50;;;3.90;99.90;;;;;;4931536;29;20196;-86
2020/12/23 02:33:29;;;;;;;0.60;0.60;;;3.70;99.90;;;;;;4931055;29;20248;-86
2020/12/23 02:35:56;;;;;;;0.60;0.60;;;3.90;99.90;;;;;;4931084;29;20246;-86
2020/12/23 02:38:22;;;;;;;0.50;0.50;;;3.90;99.90;;;;;;4930831;29;20208;-86
2020/12/23 02:40:49;;;;;;;0.50;0.50;;;3.80;99.90;;;;;;4931422;29;20256;-86
2020/12/23 02:43:15;;;;;;;0.50;0.50;;;3.70;99.90;;;;;;4931066;29;20212;-87
2020/12/23 02:45:41;;;;;;;0.52;0.52;;;3.60;99.90;;;;;;4930749;29;20256;-86
2020/12/23 02:48:07;;;;;;;0.50;0.50;;;3.60;99.90;;;;;;4930687;29;20220;-86
2020/12/23 02:50:34;;;;;;;0.60;0.60;;;3.50;99.90;;;;;;4930957;29;20200;-85
2020/12/23 02:53:00;;;;;;;0.50;0.50;;;3.40;99.90;;;;;;4930809;29;20216;-86
2020/12/23 02:55:26;;;;;;;0.50;0.50;;;3.30;99.90;;;;;;4930173;29;20228;-86
2020/12/23 02:57:53;;;;;;;0.57;0.57;;;3.50;99.90;;;;;;4930387;29;20630;-86
2020/12/23 03:00:19;;;;;;;0.50;0.50;;;3.70;99.90;;;;;;4930142;29;20205;-86
2020/12/23 03:02:45;;;;;;;0.50;0.50;;;3.80;99.90;;;;;;4930501;29;20232;-85
2020/12/23 03:05:11;;;;;;;0.50;0.50;;;3.80;99.90;;;;;;4930397;29;20208;-86
2020/12/23 03:07:37;;;;;;;0.50;0.50;;;3.60;99.90;;;;;;4930300;29;20211;-86
2020/12/23 03:10:03;;;;;;;0.50;0.50;;;3.50;99.90;;;;;;4930752;29;20200;-86
2020/12/23 03:12:29;;;;;;;0.50;0.50;;;3.40;99.90;;;;;;4930186;29;20283;-86
2020/12/23 03:14:56;;;;;;;0.50;0.50;;;3.30;99.90;;;;;;4930202;29;20196;-86
2020/12/23 03:17:22;;;;;;;0.50;0.50;;;3.30;99.90;;;;;;4928001;29;20224;-87
2020/12/23 03:19:49;;;;;;;0.50;0.50;;;3.30;99.90;;;;;;4930461;29;20208;-86
2020/12/23 03:22:15;;;;;;;0.50;0.50;;;3.30;99.90;;;;;;4930938;29;20264;-86
2020/12/23 03:24:41;;;;;;;0.50;0.50;;;3.30;99.90;;;;;;4930667;29;20579;-87
2020/12/23 03:27:08;;;;;;;0.50;0.50;;;3.40;99.90;;;;;;4930682;29;20256;-86
2020/12/23 03:29:34;;;;;;;0.50;0.50;;;3.50;99.90;;;;;;4931369;29;20204;-86
2020/12/23 03:32:01;;;;;;;0.50;0.50;;;3.50;99.90;;;;;;4931077;29;20240;-85
2020/12/23 03:34:27;;;;;;;0.55;0.55;;;3.60;99.90;;;;;;4930651;29;20220;-85
2020/12/23 03:36:53;;;;;;;0.50;0.50;;;3.70;99.90;;;;;;4930640;29;20220;-86
2020/12/23 03:39:19;;;;;;;0.50;0.50;;;3.80;99.90;;;;;;4931151;29;20201;-86
2020/12/23 03:41:45;;;;;;;0.50;0.50;;;3.90;99.90;;;;;;4930905;29;20625;-86
2020/12/23 03:44:11;;;;;;;0.50;0.50;;;4.00;99.90;;;;;;4930711;29;20204;-86
2020/12/23 03:46:37;;;;;;;0.50;0.50;;;4.20;99.90;;;;;;4930518;29;20204;-86
2020/12/23 03:49:04;;;;;;;0.50;0.50;;;4.30;99.90;;;;;;4931066;29;20675;-86
2020/12/23 03:51:30;;;;;;;0.50;0.50;;;4.30;99.90;;;;;;4930889;29;20200;-86
2020/12/23 03:53:56;;;;;;;0.50;0.50;;;4.30;99.90;;;;;;4930344;29;20825;-86
2020/12/23 03:56:22;;;;;;;0.50;0.50;;;4.30;99.90;;;;;;4930357;29;20280;-86
2020/12/23 03:58:48;;;;;;;0.50;0.50;;;4.20;99.90;;;;;;4930682;29;20224;-85
2020/12/23 04:01:14;;;;;;;0.50;0.50;;;4.10;99.90;;;;;;4931071;29;20196;-86
2020/12/23 04:03:40;;;;;;;0.50;0.50;;;4.10;99.90;;;;;;4930067;29;20641;-85
2020/12/23 04:06:07;;;;;;;0.50;0.50;;;3.90;99.90;;;;;;4930358;29;20212;-86
2020/12/23 04:08:34;;;;;;;0.50;0.50;;;3.80;99.90;;;;;;4931038;29;20216;-85
2020/12/23 04:11:00;;;;;;;0.50;0.50;;;3.60;99.90;;;;;;4930239;29;20602;-85
2020/12/23 04:13:26;;;;;;;0.50;0.50;;;3.60;99.90;;;;;;4930038;29;20209;-85
2020/12/23 04:15:52;;;;;;;0.50;0.50;;;3.50;99.90;;;;;;4930026;29;20699;-85
2020/12/23 04:18:18;;;;;;;0.50;0.50;;;3.40;99.90;;;;;;4930776;29;20201;-85
2020/12/23 04:20:44;;;;;;;0.50;0.50;;;3.40;99.90;;;;;;4930218;29;20220;-84
2020/12/23 04:23:12;;;;;;;0.50;0.50;;;3.50;99.90;;;;;;4930275;29;20335;-85
2020/12/23 04:25:39;;;;;;;0.50;0.50;;;3.50;99.90;;;;;;4930326;29;20196;-85
2020/12/23 04:28:05;;;;;;;0.50;0.50;;;3.50;99.90;;;;;;4930638;29;20236;-85
2020/12/23 04:30:31;;;;;;;0.50;0.50;;;3.40;99.90;;;;;;4930395;29;20217;-85
2020/12/23 04:32:57;;;;;;;0.50;0.50;;;3.40;99.90;;;;;;4930080;29;20211;-85
2020/12/23 04:35:23;;;;;;;0.50;0.50;;;3.30;99.90;;;;;;4929987;29;20204;-85
2020/12/23 04:37:49;;;;;;;0.50;0.50;;;3.30;99.90;;;;;;4930569;29;20204;-85
2020/12/23 04:40:16;;;;;;;0.50;0.50;;;3.20;99.90;;;;;;4930476;29;20196;-85
2020/12/23 04:42:43;;;;;;;0.50;0.50;;;3.30;99.90;;;;;;4929961;29;20215;-85
2020/12/23 04:45:09;;;;;;;0.50;0.50;;;3.40;99.90;;;;;;4930027;29;20256;-85
2020/12/23 04:47:37;;;;;;;0.50;0.50;;;3.40;99.90;;;;;;4930156;29;20205;-85
2020/12/23 04:50:04;;;;;;;0.50;0.50;;;3.30;99.90;;;;;;4930520;29;20212;-85
2020/12/23 04:52:32;;;;;;;0.50;0.50;;;3.20;99.90;;;;;;4930209;29;20574;-85
2020/12/23 04:54:59;;;;;;;0.50;0.50;;;3.30;99.90;;;;;;4929871;29;20266;-85
2020/12/23 04:57:27;;;;;;;0.50;0.50;;;3.20;99.90;;;;;;4929496;29;20682;-85
2020/12/23 04:59:53;;;;;;;0.50;0.50;;;3.00;99.90;;;;;;4929890;29;20204;-86
2020/12/23 05:02:20;;;;;;;0.50;0.50;;;3.00;99.90;;;;;;4929993;29;20243;-85
2020/12/23 05:04:46;;;;;;;0.50;0.50;;;3.10;99.90;;;;;;4930226;29;20618;-85
2020/12/23 05:07:12;;;;;;;0.50;0.50;;;3.10;99.90;;;;;;4930014;29;20201;-85
2020/12/23 05:09:38;;;;;;;0.50;0.50;;;2.90;99.90;;;;;;4929685;29;20208;-85
2020/12/23 05:12:05;;;;;;;0.50;0.50;;;2.90;99.90;;;;;;4930310;29;20275;-85
2020/12/23 05:14:33;;;;;;;0.50;0.50;;;2.90;99.90;;;;;;4930146;29;20197;-85
2020/12/23 05:16:59;;;;;;;0.50;0.50;;;3.00;99.90;;;;;;4929899;29;20225;-84
2020/12/23 05:19:25;;;;;;;0.50;0.50;;;3.10;99.90;;;;;;4929813;29;20267;-85
2020/12/23 05:21:52;;;;;;;0.50;0.50;;;3.20;99.90;;;;;;4929847;29;20213;-84
2020/12/23 05:24:18;;;;;;;0.50;0.50;;;3.10;99.90;;;;;;4932311;29;20197;-84
2020/12/23 05:26:45;;;;;;;0.50;0.50;;;3.10;99.90;;;;;;4933237;29;20197;-85
2020/12/23 05:29:13;;;;;;;0.50;0.50;;;3.00;99.90;;;;;;4933028;29;20208;-85
2020/12/23 05:31:41;;;;;;;0.50;0.50;;;2.90;99.90;;;;;;4932968;29;20892;-84
2020/12/23 05:34:07;;;;;;;0.50;0.50;;;3.00;99.90;;;;;;4932944;29;20219;-85
2020/12/23 05:36:35;;;;;;;0.50;0.50;;;3.00;99.90;;;;;;4933160;29;20235;-85
2020/12/23 05:39:04;;;;;;;0.50;0.50;;;3.10;99.90;;;;;;4933382;29;20200;-85
2020/12/23 05:41:30;;;;;;;0.50;0.50;;;3.20;99.90;;;;;;4933227;29;20208;-85
2020/12/23 05:43:56;;;;;;;0.50;0.50;;;3.20;99.90;;;;;;4932982;29;20268;-85
2020/12/23 05:46:22;;;;;;;0.50;0.50;;;3.10;99.90;;;;;;4932688;29;20255;-85
2020/12/23 05:48:49;;;;;;;0.50;0.50;;;3.10;99.90;;;;;;4933112;29;20280;-85
2020/12/23 05:51:15;;;;;;;0.50;0.50;;;3.20;99.90;;;;;;4933140;29;20212;-85
2020/12/23 05:53:42;;;;;;;0.50;0.50;;;3.30;99.90;;;;;;4932504;29;20204;-85
2020/12/23 05:56:09;;;;;;;0.50;0.50;;;3.30;99.90;;;;;;4932358;29;20236;-85
2020/12/23 05:58:36;;;;;;;0.50;0.50;;;3.20;99.90;;;;;;4932642;29;20220;-84
2020/12/23 06:01:05;;;;;;;0.50;0.50;;;3.20;99.90;;;;;;4932973;29;20207;-85
2020/12/23 06:03:50;;;;;;;0.50;0.50;;;3.30;99.90;;;;;;4932837;29;20323;-85
2020/12/23 06:06:22;;;;;;;0.50;0.50;;;3.40;99.90;;;;;;4932907;29;20207;-85
2020/12/23 06:08:51;;;;;;;0.50;0.50;;;3.30;99.90;;;;;;4932652;29;20204;-84
2020/12/23 06:11:27;;;;;;;0.50;0.50;;;3.20;99.90;;;;;;4932711;29;20594;-85
2020/12/23 06:14:15;;;;;;;0.50;0.50;;;3.10;99.90;;;;;;4931978;29;20206;-85
2020/12/23 06:16:45;;;;;;;0.50;0.50;;;3.00;99.90;;;;;;4927526;29;20433;-85
2020/12/23 06:19:12;;;;;;;0.50;0.50;;;3.00;99.90;;;;;;4932276;29;20223;-84
2020/12/23 06:21:40;;;;;;;0.50;0.50;;;3.00;99.90;;;;;;4931815;29;20196;-84
2020/12/23 06:24:10;;;;;;;0.50;0.50;;;3.00;99.90;;;;;;4932238;29;20201;-85
2020/12/23 06:26:37;;;;;;;0.50;0.50;;;3.10;99.90;;;;;;4931939;29;20200;-84
2020/12/23 06:29:06;;;;;;;0.50;0.50;;;2.90;99.90;;;;;;4932358;29;20272;-85
2020/12/23 06:31:39;;;;;;;0.50;0.50;;;2.80;99.90;;;;;;4932422;29;20211;-85
2020/12/23 06:34:06;;;;;;;0.50;0.50;;;2.70;99.90;;;;;;4931993;29;20204;-84
2020/12/23 06:36:34;;;;;;;0.50;0.50;;;2.60;99.90;;;;;;4932108;29;20224;-84
2020/12/23 06:39:31;;;;;;;0.50;0.50;;;2.70;99.90;;;;;;4932033;29;20550;-84
2020/12/23 06:42:37;;;;;;;0.50;0.50;;;2.60;99.90;;;;;;4931679;29;20205;-84
2020/12/23 06:45:07;;;;;;;0.50;0.50;;;2.70;99.90;;;;;;4932153;29;20240;-84
2020/12/23 06:47:35;;;;;;;0.50;0.50;;;2.50;99.90;;;;;;4932202;29;20288;-84
2020/12/23 06:50:03;;;;;;;0.50;0.50;;;2.50;99.90;;;;;;4932074;29;20212;-84
2020/12/23 06:52:53;;;;;;;0.50;0.50;;;2.50;99.90;;;;;;4931793;29;20224;-84
2020/12/23 06:55:22;;;;;;;0.50;0.50;;;2.50;99.90;;;;;;4917288;29;20213;-84
2020/12/23 06:57:58;;;;;;;0.50;0.50;;;2.40;99.90;;;;;;4931580;29;20287;-85
2020/12/23 07:00:48;;;;;;;0.50;0.50;;;2.40;99.90;;;;;;4931301;29;20204;-85
2020/12/23 07:03:14;;;;;;;0.50;0.50;;;2.50;99.90;;;;;;4931247;29;20239;-85
2020/12/23 07:05:45;;;;;;;0.50;0.50;;;2.40;99.90;;;;;;4931367;29;20550;-85
2020/12/23 07:08:16;;;;;;;0.50;0.50;;;2.30;99.90;;;;;;4931458;29;20207;-85
2020/12/23 07:10:46;;;;;;;0.50;0.50;;;2.20;99.90;;;;;;4931205;29;20287;-85
2020/12/23 07:13:15;;;;;;;0.50;0.50;;;2.10;99.90;;;;;;4931909;29;20212;-85
2020/12/23 07:15:42;;;;;;;0.50;0.50;;;2.10;99.90;;;;;;4931164;29;20204;-86
2020/12/23 07:18:10;;;;;;;0.50;0.50;;;2.00;99.90;;;;;;4931568;29;20212;-85
2020/12/23 07:20:41;;;;;;;0.57;0.57;;;2.00;99.90;;;;;;4932085;29;20589;-85
2020/12/23 07:23:12;;;;;;;0.50;0.50;;;2.00;99.90;;;;;;4931548;29;20204;-85
2020/12/23 07:25:47;;;;;;;0.50;0.50;;;2.00;99.90;;;;;;4931029;29;20208;-85
2020/12/23 07:28:16;;;;;;;0.55;0.55;;;2.00;99.90;;;;;;4931167;29;20295;-85
2020/12/23 07:30:42;;;;;;;0.50;0.50;;;2.20;99.90;;;;;;4931051;29;20212;-85
2020/12/23 07:33:16;;;;;;;0.50;0.50;;;2.30;99.90;;;;;;4931099;29;20259;-84
2020/12/23 07:35:46;;;;;;;0.50;0.50;;;2.30;99.90;;;;;;4930698;29;20204;-84
2020/12/23 07:38:12;;;;;;;0.50;0.50;;;2.30;99.90;;;;;;4930733;29;20704;-85
2020/12/23 07:40:38;;;;;;;0.50;0.50;;;2.20;99.90;;;;;;4931298;29;20215;-85
2020/12/23 07:43:06;;;;;;;0.50;0.50;;;2.10;99.90;;;;;;4931152;29;20209;-85
2020/12/23 07:45:33;;;;;;;0.50;0.50;;;2.10;99.90;;;;;;4930898;29;20212;-84
2020/12/23 07:48:01;;;;;;;0.50;0.50;;;2.10;99.90;;;;;;4931947;29;20207;-84
2020/12/23 07:50:29;;;;;;;0.50;0.50;;;2.10;99.90;;;;;;4928416;29;20670;-85
2020/12/23 07:52:56;;;;;;;0.50;0.50;;;2.10;99.90;;;;;;4930848;29;20565;-84
2020/12/23 07:55:23;;;;;;;0.50;0.50;;;2.10;99.90;;;;;;4930834;29;20604;-84
2020/12/23 07:57:51;;;;;;;0.50;0.50;;;2.00;99.90;;;;;;4930611;29;20232;-86
2020/12/23 08:00:19;;;;;;;0.50;0.50;;;2.00;99.90;;;;;;4930906;29;20219;-84
2020/12/23 08:03:00;;;;;;;0.50;0.50;;;2.00;99.90;;;;;;4930137;29;20590;-84
2020/12/23 08:05:26;;;;;;;0.50;0.50;;;2.20;99.90;;;;;;4930318;29;20442;-85
2020/12/23 08:07:52;;;;;;;0.50;0.50;;;2.30;99.90;;;;;;4930695;29;20200;-84
2020/12/23 08:10:20;;;;;;;0.50;0.50;;;2.40;99.90;;;;;;4931025;29;20208;-84
2020/12/23 08:12:54;;;;;;;0.50;0.50;;;2.40;99.90;;;;;;4930297;29;20200;-85
2020/12/23 08:15:22;;;;;;;0.50;0.50;;;2.30;99.90;;;;;;4930738;29;20203;-84
2020/12/23 08:17:48;;;;;;;0.50;0.50;;;2.20;99.90;;;;;;4931205;29;20220;-85
2020/12/23 08:20:15;;;;;;;0.50;0.50;;;2.20;99.90;;;;;;4930357;29;20204;-85
2020/12/23 08:22:43;;;;;;;0.50;0.50;;;2.30;99.90;;;;;;4930558;29;20255;-84
2020/12/23 08:25:11;;;;;;;0.50;0.50;;;2.30;99.90;;;;;;4930526;29;20264;-84
2020/12/23 08:27:39;;;;;;;0.50;0.50;;;2.40;99.90;;;;;;4930861;29;20204;-85
2020/12/23 08:30:07;;;;;;;0.50;0.50;;;2.30;99.90;;;;;;4932071;29;20208;-85
2020/12/23 08:32:46;;;;;;;0.50;0.50;;;2.30;99.90;;;;;;4931375;29;20211;-85
2020/12/23 08:35:13;;;;;;;0.50;0.50;;;2.40;99.90;;;;;;4946589;29;20211;-85
2020/12/23 08:37:39;;;;;;;0.50;0.50;;;2.40;99.90;;;;;;4943794;29;20224;-84
2020/12/23 08:40:07;;;;;;;0.50;0.50;;;2.50;99.90;;;;;;4946768;29;20581;-85
2020/12/23 08:42:34;;;;;;;0.50;0.50;;;2.60;99.90;;;;;;4936043;29;20228;-85
2020/12/23 08:45:00;;;;;;;0.50;0.50;;;2.70;99.90;;;;;;4932531;29;20322;-86
2020/12/23 08:47:31;;;;;;;0.50;0.50;;;2.80;99.90;;;;;;4930271;29;20275;-85
2020/12/23 08:49:59;;;;;;;0.50;0.50;;;2.80;99.90;;;;;;4930166;29;20462;-85
2020/12/23 08:52:26;;;;;;;0.50;0.50;;;2.80;99.90;;;;;;4930215;29;20201;-85
2020/12/23 08:54:53;;;;;;;0.50;0.50;;;2.80;99.90;;;;;;4930208;29;20205;-85
2020/12/23 08:57:25;;;;;;;0.50;0.50;;;2.80;99.90;;;;;;4928454;29;20234;-86
2020/12/23 08:59:51;;;;;;;0.50;0.50;;;2.90;99.90;;;;;;4934011;29;20729;-86
2020/12/23 09:02:18;;;;;;;0.50;0.50;;;2.90;99.90;;;;;;4935730;29;20240;-85
2020/12/23 09:04:45;;;;;;;0.50;0.50;;;2.90;99.90;;;;;;4934147;29;20204;-83
2020/12/23 09:07:13;;;;;;;0.50;0.50;;;2.90;99.90;;;;;;4929801;29;20801;-83
2020/12/23 09:09:40;;;;;;;0.50;0.50;;;3.00;99.90;;;;;;4932810;29;20209;-84
2020/12/23 09:12:06;;;;;;;0.50;0.50;;;3.00;99.90;;;;;;4932898;29;20208;-83
2020/12/23 09:14:34;;;;;;;0.50;0.50;;;3.00;99.90;;;;;;4934355;29;20204;-85
2020/12/23 09:17:06;;;;;;;0.50;0.50;;;3.20;99.90;;;;;;4926635;29;20275;-85
2020/12/23 09:19:49;;;;;;;0.50;0.50;;;3.20;99.90;;;;;;4925306;29;20737;-85
2020/12/23 09:22:27;;;;;;;0.50;0.50;;;3.30;99.90;;;;;;4924897;29;20216;-85
2020/12/23 09:25:12;;;;;;;0.50;0.50;;;3.40;99.90;;;;;;4924263;29;20197;-85
2020/12/23 09:27:38;;;;;;;0.50;0.50;;;3.50;99.90;;;;;;4925858;29;20204;-85
2020/12/23 09:30:05;;;;;;;0.50;0.50;;;3.50;99.90;;;;;;4924670;29;20200;-85
2020/12/23 09:32:32;;;;;;;0.50;0.50;;;3.60;99.90;;;;;;4923172;29;20219;-84
2020/12/23 09:35:13;;;;;;;0.50;0.50;;;3.60;99.90;;;;;;4924051;29;20252;-85
2020/12/23 09:37:41;;;;;;;0.50;0.50;;;3.60;99.90;;;;;;4926348;29;20275;-84
2020/12/23 09:40:07;;;;;;;0.50;0.50;;;3.70;99.90;;;;;;4913506;29;20213;-85
2020/12/23 09:42:34;;;;;;;0.50;0.50;;;3.80;99.90;;;;;;4913911;29;20233;-85
2020/12/23 09:45:00;;;;;;;0.50;0.50;;;3.90;99.90;;;;;;4913458;29;20212;-83
2020/12/23 09:47:26;;;;;;;0.50;0.50;;;3.90;99.90;;;;;;4916388;29;20580;-83
2020/12/23 09:49:53;;;;;;;0.50;0.50;;;4.00;99.90;;;;;;4916395;29;20212;-83
2020/12/23 09:52:19;;;;;;;0.50;0.50;;;4.10;99.90;;;;;;4925429;29;20259;-82
2020/12/23 09:54:46;;;;;;;0.45;0.45;;;4.20;99.90;;;;;;4923632;29;20205;-82
2020/12/23 09:57:12;;;;;;;0.50;0.50;;;4.30;99.90;;;;;;4916505;29;20232;-82
2020/12/23 09:59:41;;;;;;;0.50;0.50;;;4.40;99.90;;;;;;4927510;29;20209;-83
2020/12/23 10:02:20;;;;;;;;;;;;;;;;;;;;;
2020/12/23 10:11:35;;;;;;;0.50;0.50;;;4.80;99.90;;;;;;4798679;29;20705;-83
2020/12/23 10:14:02;;;;;;;0.40;0.40;;;4.60;99.90;;;;;;4869610;29;20211;-83
2020/12/23 10:16:32;;;;;;;0.50;0.50;;;4.70;99.90;;;;;;4915738;29;20230;-83
2020/12/23 10:18:58;;;;;;;0.50;0.50;;;4.80;99.90;;;;;;4913185;29;20265;-83
2020/12/23 10:21:25;;;;;;;0.43;0.43;;;4.90;99.90;;;;;;4913248;29;20201;-82
2020/12/23 10:23:51;;;;;;;0.40;0.40;;;5.10;99.90;;;;;;4913481;29;20215;-82
2020/12/23 10:26:17;;;;;;;0.40;0.40;;;5.20;99.90;;;;;;4913352;29;20284;-82
2020/12/23 10:28:44;;;;;;;0.50;0.50;;;5.30;99.90;;;;;;4913025;29;20586;-82
2020/12/23 10:31:11;;;;;;;0.40;0.40;;;5.40;99.90;;;;;;4913161;29;20209;-82
2020/12/23 10:33:37;;;;;;;0.40;0.40;;;5.50;99.90;;;;;;4914321;29;20215;-83
2020/12/23 10:36:08;;;;;;;0.40;0.40;;;5.60;99.90;;;;;;4932110;29;20211;-82
2020/12/23 10:38:35;;;;;;;0.40;0.40;;;5.90;99.90;;;;;;4932182;29;20204;-82
2020/12/23 10:41:01;;;;;;;0.40;0.40;;;5.80;99.90;;;;;;4919076;29;20668;-83
2020/12/23 10:43:27;;;;;;;0.40;0.40;;;5.90;99.90;;;;;;4927141;29;20219;-82
2020/12/23 10:45:54;;;;;;;0.40;0.40;;;6.00;99.90;;;;;;4925649;29;20211;-82
2020/12/23 10:48:20;;;;;;;0.40;0.40;;;6.00;99.90;;;;;;4929414;29;20291;-85
2020/12/23 10:50:47;;;;;;;0.40;0.40;;;5.90;99.90;;;;;;4927214;29;20569;-85
2020/12/23 10:53:13;;;;;;;0.40;0.40;;;5.90;99.90;;;;;;4923251;29;20216;-85
2020/12/23 10:55:39;;;;;;;0.40;0.40;;;6.00;99.90;;;;;;4924895;29;20209;-85
2020/12/23 10:58:16;;;;;;;;;;;;;;;;;;;;;
2020/12/23 11:13:52;;;;;;;0.40;0.40;;;6.10;99.90;;;;;;4763442;30;20206;-85
2020/12/23 11:16:21;;;;;;;0.40;0.40;;;6.10;99.90;;;;;;4815659;29;20225;-86
2020/12/23 11:18:48;;;;;;;0.40;0.40;;;6.30;99.90;;;;;;4897308;29;20212;-84
2020/12/23 11:21:15;;;;;;;0.40;0.40;;;6.10;99.90;;;;;;4930785;29;20581;-84
2020/12/23 11:23:41;;;;;;;0.40;0.40;;;6.10;99.90;;;;;;4925955;29;20196;-81
2020/12/23 11:26:22;;;;;;;0.40;0.40;;;6.10;99.90;;;;;;4921723;29;20209;-80
2020/12/23 11:28:49;;;;;;;0.40;0.40;;;6.20;99.90;;;;;;4920827;29;20217;-82
2020/12/23 11:31:16;;;;;;;0.40;0.40;;;6.20;99.90;;;;;;4919214;29;20240;-81
2020/12/23 11:33:42;;;;;;;0.40;0.40;;;6.20;99.90;;;;;;4919769;29;20201;-81
2020/12/23 11:36:09;;;;;;;0.40;0.40;;;6.20;99.90;;;;;;4920510;29;20200;-81
2020/12/23 11:38:36;;;;;;;0.40;0.40;;;6.20;99.90;;;;;;4923556;29;20208;-81
2020/12/23 11:41:05;;;;;;;0.40;0.40;;;6.30;99.90;;;;;;4915701;29;20197;-81
2020/12/23 11:43:31;;;;;;;0.40;0.40;;;6.30;99.90;;;;;;4916274;29;20278;-82
2020/12/23 11:45:57;;;;;;;0.40;0.40;;;6.30;99.90;;;;;;4924545;29;20328;-82
2020/12/23 11:48:23;;;;;;;0.40;0.40;;;6.30;99.90;;;;;;4920063;29;20204;-82
2020/12/23 11:50:50;;;;;;;0.40;0.40;;;6.30;99.90;;;;;;4928512;29;20251;-82
2020/12/23 11:53:16;;;;;;;0.40;0.40;;;6.30;99.90;;;;;;4922518;29;20680;-82
2020/12/23 11:55:43;;;;;;;0.40;0.40;;;6.30;99.90;;;;;;4928187;29;20610;-82
2020/12/23 11:58:09;;;;;;;0.40;0.40;;;6.30;99.90;;;;;;4913808;29;20233;-86
2020/12/23 12:00:35;;;;;;;0.43;0.43;;;6.30;99.90;;;;;;4914509;29;20205;-84
2020/12/23 12:03:01;;;;;;;0.40;0.40;;;6.30;99.90;;;;;;4911819;29;20236;-82
2020/12/23 12:05:27;;;;;;;0.40;0.40;;;6.30;99.90;;;;;;4911605;29;20741;-82
2020/12/23 12:07:54;;;;;;;0.50;0.50;;;6.30;99.90;;;;;;4911373;29;20201;-82
2020/12/23 12:10:20;;;;;;;0.40;0.40;;;6.30;99.90;;;;;;4912022;29;20205;-83
2020/12/23 12:12:46;;;;;;;0.40;0.40;;;6.30;99.90;;;;;;4911953;29;20208;-81
2020/12/23 12:15:13;;;;;;;0.40;0.40;;;6.30;99.90;;;;;;4917807;29;20497;-82
2020/12/23 12:17:39;;;;;;;0.40;0.40;;;6.30;99.90;;;;;;4924930;29;20239;-82
2020/12/23 12:20:05;;;;;;;0.40;0.40;;;6.20;99.90;;;;;;4921800;29;20213;-82
2020/12/23 12:22:31;;;;;;;0.40;0.40;;;6.30;99.90;;;;;;4919639;29;20200;-83
2020/12/23 12:24:58;;;;;;;0.40;0.40;;;6.20;99.90;;;;;;4919026;29;20272;-83
2020/12/23 12:27:26;;;;;;;0.47;0.47;;;6.30;99.90;;;;;;4918729;29;20197;-83
2020/12/23 12:29:52;;;;;;;0.40;0.40;;;6.30;99.90;;;;;;4919529;29;20252;-83
2020/12/23 12:32:18;;;;;;;0.50;0.50;;;6.30;99.90;;;;;;4921572;29;20264;-82
2020/12/23 12:34:44;;;;;;;0.40;0.40;;;6.30;99.90;;;;;;4922301;29;20208;-81
2020/12/23 12:37:11;;;;;;;0.40;0.40;;;6.30;99.90;;;;;;4923083;29;20634;-81
2020/12/23 12:39:37;;;;;;;0.50;0.50;;;6.30;99.90;;;;;;4925656;29;20205;-85
2020/12/23 12:42:04;;;;;;;0.50;0.50;;;6.30;99.90;;;;;;4924026;29;20212;-83
2020/12/23 12:44:31;;;;;;;0.40;0.40;;;6.30;99.90;;;;;;4885473;29;20670;-83
2020/12/23 12:46:58;;;;;;;0.40;0.40;;;6.30;99.90;;;;;;4913927;29;20275;-83
2020/12/23 12:49:24;;;;;;;0.40;0.40;;;6.30;99.90;;;;;;4926116;29;20209;-83
2020/12/23 12:51:50;;;;;;;0.40;0.40;;;6.30;99.90;;;;;;4927397;29;20205;-82
2020/12/23 12:54:19;;;;;;;0.40;0.40;;;6.30;99.90;;;;;;4915030;29;20663;-82
2020/12/23 12:56:46;;;;;;;0.50;0.50;;;6.30;99.90;;;;;;4922379;29;20212;-83
2020/12/23 12:59:12;;;;;;;0.40;0.40;;;6.30;99.90;;;;;;4923447;29;20261;-82
2020/12/23 13:01:40;;;;;;;0.40;0.40;;;6.40;99.90;;;;;;4930754;29;20256;-83
2020/12/23 13:04:07;;;;;;;0.40;0.40;;;6.40;99.90;;;;;;4927374;29;20572;-83
2020/12/23 13:06:34;;;;;;;0.40;0.40;;;6.40;99.90;;;;;;4915469;29;20201;-85
2020/12/23 13:09:01;;;;;;;0.40;0.40;;;6.40;99.90;;;;;;4918596;29;20265;-82
2020/12/23 13:11:30;;;;;;;0.40;0.40;;;6.40;99.90;;;;;;4924852;29;20209;-82
2020/12/23 13:13:56;;;;;;;0.40;0.40;;;6.40;99.90;;;;;;4924274;29;20238;-83
2020/12/23 13:28:18;;;;;;;0.40;0.40;;;6.20;99.90;;;;;;4917353;29;20200;-83
2020/12/23 13:33:32;;;;;;;0.50;0.50;;;6.40;99.90;;;;;;4910556;29;20239;-83
2020/12/23 13:35:58;;;;;;;0.40;0.40;;;6.40;99.90;;;;;;4935117;29;20224;-86
2020/12/23 13:38:25;;;;;;;0.40;0.40;;;6.50;99.90;;;;;;4916989;29;20225;-82